sensor_id;sensor_type;location;lat;lon;timestamp;pressure;altitude;pressure_sealevel;temperature;humidity
22389;BME280;11362;48.102;11.620;2023-03-14T00:01:14;93754.25;;;23.60;36.51
22389;BME280;11362;48.102;11.620;2023-03-14T00:03:39;93756.69;;;23.58;36.42
22389;BME280;11362;48.102;11.620;2023-03-14T00:06:06;93742.84;;;23.58;36.31
22389;BME280;11362;48.102;11.620;2023-03-14T00:08:31;93731.44;;;23.56;36.34
22389;BME280;11362;48.102;11.620;2023-03-14T00:10:56;93725.09;;;23.55;36.39
22389;BME280;11362;48.102;11.620;2023-03-14T00:13:22;93737.75;;;23.56;36.35
22389;BME280;11362;48.102;11.620;2023-03-14T00:15:47;93759.16;;;23.56;36.38
22389;BME280;11362;48.102;11.620;2023-03-14T00:18:12;93773.78;;;23.56;36.34
22389;BME280;11362;48.102;11.620;2023-03-14T00:20:38;93770.25;;;23.56;36.27
22389;BME280;11362;48.102;11.620;2023-03-14T00:23:03;93762.38;;;23.54;36.23
22389;BME280;11362;48.102;11.620;2023-03-14T00:25:28;93752.81;;;23.55;36.37
22389;BME280;11362;48.102;11.620;2023-03-14T00:27:53;93756.06;;;23.54;36.41
22389;BME280;11362;48.102;11.620;2023-03-14T00:30:19;93743.75;;;23.55;36.24
22389;BME280;11362;48.102;11.620;2023-03-14T00:32:44;93741.75;;;23.55;36.20
22389;BME280;11362;48.102;11.620;2023-03-14T00:35:10;93745.75;;;23.54;36.21
22389;BME280;11362;48.102;11.620;2023-03-14T00:37:35;93738.22;;;23.55;36.25
22389;BME280;11362;48.102;11.620;2023-03-14T00:40:00;93741.75;;;23.55;36.30
22389;BME280;11362;48.102;11.620;2023-03-14T00:42:25;93731.88;;;23.54;36.21
22389;BME280;11362;48.102;11.620;2023-03-14T00:44:51;93729.91;;;23.55;36.09
22389;BME280;11362;48.102;11.620;2023-03-14T00:47:16;93740.19;;;23.54;36.30
22389;BME280;11362;48.102;11.620;2023-03-14T00:49:41;93756.06;;;23.54;36.22
22389;BME280;11362;48.102;11.620;2023-03-14T00:52:06;93752.50;;;23.53;36.14
22389;BME280;11362;48.102;11.620;2023-03-14T00:54:32;93761.59;;;23.54;36.08
22389;BME280;11362;48.102;11.620;2023-03-14T00:56:57;93764.38;;;23.54;36.14
22389;BME280;11362;48.102;11.620;2023-03-14T00:59:22;93766.38;;;23.53;36.19
22389;BME280;11362;48.102;11.620;2023-03-14T01:01:48;93765.63;;;23.53;36.06
22389;BME280;11362;48.102;11.620;2023-03-14T01:04:13;93772.69;;;23.54;35.94
22389;BME280;11362;48.102;11.620;2023-03-14T01:06:39;93783.00;;;23.53;36.05
22389;BME280;11362;48.102;11.620;2023-03-14T01:09:04;93790.56;;;23.53;36.01
22389;BME280;11362;48.102;11.620;2023-03-14T01:11:32;93796.09;;;23.53;35.97
22389;BME280;11362;48.102;11.620;2023-03-14T01:13:58;93798.09;;;23.52;36.05
22389;BME280;11362;48.102;11.620;2023-03-14T01:16:25;93794.09;;;23.53;36.07
22389;BME280;11362;48.102;11.620;2023-03-14T01:18:52;93811.50;;;23.54;36.14
22389;BME280;11362;48.102;11.620;2023-03-14T01:21:29;93805.94;;;23.54;36.05
22389;BME280;11362;48.102;11.620;2023-03-14T01:23:56;93809.94;;;23.53;35.98
22389;BME280;11362;48.102;11.620;2023-03-14T01:26:24;93797.63;;;23.54;35.85
22389;BME280;11362;48.102;11.620;2023-03-14T01:28:52;93792.53;;;23.52;35.86
22389;BME280;11362;48.102;11.620;2023-03-14T01:31:18;93798.09;;;23.52;36.04
22389;BME280;11362;48.102;11.620;2023-03-14T01:33:43;93795.75;;;23.51;35.97
22389;BME280;11362;48.102;11.620;2023-03-14T01:36:10;93800.53;;;23.50;36.08
22389;BME280;11362;48.102;11.620;2023-03-14T01:38:36;93789.47;;;23.50;35.84
22389;BME280;11362;48.102;11.620;2023-03-14T01:41:03;93795.00;;;23.50;35.95
22389;BME280;11362;48.102;11.620;2023-03-14T01:43:29;93796.53;;;23.51;35.89
22389;BME280;11362;48.102;11.620;2023-03-14T01:49:11;93795.75;;;23.51;36.06
22389;BME280;11362;48.102;11.620;2023-03-14T01:52:08;93791.00;;;23.51;36.04
22389;BME280;11362;48.102;11.620;2023-03-14T01:54:39;93795.75;;;23.51;36.00
22389;BME280;11362;48.102;11.620;2023-03-14T01:57:17;93807.63;;;23.51;35.97
22389;BME280;11362;48.102;11.620;2023-03-14T01:59:52;93808.06;;;23.50;36.10
22389;BME280;11362;48.102;11.620;2023-03-14T02:02:19;93815.63;;;23.49;35.97
22389;BME280;11362;48.102;11.620;2023-03-14T02:04:45;93819.16;;;23.50;35.99
22389;BME280;11362;48.102;11.620;2023-03-14T02:07:16;93806.09;;;23.50;35.97
22389;BME280;11362;48.102;11.620;2023-03-14T02:09:43;93811.31;;;23.48;35.97
22389;BME280;11362;48.102;11.620;2023-03-14T02:12:09;93808.53;;;23.48;36.00
22389;BME280;11362;48.102;11.620;2023-03-14T02:14:37;93803.75;;;23.49;35.97
22389;BME280;11362;48.102;11.620;2023-03-14T02:17:04;93814.09;;;23.48;36.07
22389;BME280;11362;48.102;11.620;2023-03-14T02:20:03;93814.09;;;23.48;35.95
22389;BME280;11362;48.102;11.620;2023-03-14T02:22:31;93805.78;;;23.48;35.61
22389;BME280;11362;48.102;11.620;2023-03-14T02:25:17;93808.84;;;23.50;36.01
22389;BME280;11362;48.102;11.620;2023-03-14T02:27:47;93791.91;;;23.48;36.02
22389;BME280;11362;48.102;11.620;2023-03-14T02:30:19;93779.59;;;23.49;35.96
22389;BME280;11362;48.102;11.620;2023-03-14T02:32:48;93775.28;;;23.48;36.07
22389;BME280;11362;48.102;11.620;2023-03-14T02:35:19;93760.97;;;23.50;36.00
22389;BME280;11362;48.102;11.620;2023-03-14T02:37:51;93749.13;;;23.49;36.03
22389;BME280;11362;48.102;11.620;2023-03-14T02:40:17;93732.50;;;23.49;35.93
22389;BME280;11362;48.102;11.620;2023-03-14T02:42:43;93718.63;;;23.49;36.00
22389;BME280;11362;48.102;11.620;2023-03-14T02:47:34;93699.22;;;23.49;36.03
22389;BME280;11362;48.102;11.620;2023-03-14T02:50:04;93682.59;;;23.49;35.95
22389;BME280;11362;48.102;11.620;2023-03-14T02:52:31;93678.28;;;23.48;35.89
22389;BME280;11362;48.102;11.620;2023-03-14T02:54:56;93683.84;;;23.48;36.01
22389;BME280;11362;48.102;11.620;2023-03-14T02:57:22;93671.19;;;23.47;36.10
22389;BME280;11362;48.102;11.620;2023-03-14T02:59:47;93669.97;;;23.48;36.02
22389;BME280;11362;48.102;11.620;2023-03-14T03:02:12;93658.13;;;23.48;36.03
22389;BME280;11362;48.102;11.620;2023-03-14T03:04:38;93675.53;;;23.48;35.95
22389;BME280;11362;48.102;11.620;2023-03-14T03:07:03;93664.44;;;23.48;35.89
22389;BME280;11362;48.102;11.620;2023-03-14T03:09:28;93666.44;;;23.48;36.06
22389;BME280;11362;48.102;11.620;2023-03-14T03:11:53;93647.81;;;23.48;35.88
22389;BME280;11362;48.102;11.620;2023-03-14T03:14:19;93643.81;;;23.49;35.90
22389;BME280;11362;48.102;11.620;2023-03-14T03:16:44;93649.34;;;23.49;35.95
22389;BME280;11362;48.102;11.620;2023-03-14T03:19:09;93653.34;;;23.48;35.88
22389;BME280;11362;48.102;11.620;2023-03-14T03:21:35;93654.56;;;23.47;35.89
22389;BME280;11362;48.102;11.620;2023-03-14T03:24:00;93643.94;;;23.46;35.85
22389;BME280;11362;48.102;11.620;2023-03-14T03:26:25;93642.72;;;23.47;35.90
22389;BME280;11362;48.102;11.620;2023-03-14T03:28:51;93644.25;;;23.48;35.67
22389;BME280;11362;48.102;11.620;2023-03-14T03:31:16;93627.31;;;23.46;35.93
22389;BME280;11362;48.102;11.620;2023-03-14T03:33:42;93642.28;;;23.48;35.87
22389;BME280;11362;48.102;11.620;2023-03-14T03:36:08;93637.94;;;23.47;35.77
22389;BME280;11362;48.102;11.620;2023-03-14T03:38:33;93637.63;;;23.45;36.01
22389;BME280;11362;48.102;11.620;2023-03-14T03:41:02;93635.16;;;23.47;35.92
22389;BME280;11362;48.102;11.620;2023-03-14T03:43:27;93635.94;;;23.48;35.81
22389;BME280;11362;48.102;11.620;2023-03-14T03:45:53;93634.41;;;23.47;35.86
22389;BME280;11362;48.102;11.620;2023-03-14T03:48:18;93635.16;;;23.47;35.88
22389;BME280;11362;48.102;11.620;2023-03-14T03:50:45;93637.94;;;23.47;35.82
22389;BME280;11362;48.102;11.620;2023-03-14T03:53:10;93637.94;;;23.47;35.99
22389;BME280;11362;48.102;11.620;2023-03-14T03:55:36;93645.94;;;23.45;35.83
22389;BME280;11362;48.102;11.620;2023-03-14T03:58:01;93647.03;;;23.48;35.86
22389;BME280;11362;48.102;11.620;2023-03-14T04:00:26;93648.25;;;23.47;35.83
22389;BME280;11362;48.102;11.620;2023-03-14T04:02:52;93644.69;;;23.46;35.84
22389;BME280;11362;48.102;11.620;2023-03-14T04:05:17;93630.84;;;23.46;35.78
22389;BME280;11362;48.102;11.620;2023-03-14T04:07:42;93634.41;;;23.47;35.85
22389;BME280;11362;48.102;11.620;2023-03-14T04:10:08;93643.47;;;23.47;35.88
22389;BME280;11362;48.102;11.620;2023-03-14T04:12:33;93634.41;;;23.47;35.61
22389;BME280;11362;48.102;11.620;2023-03-14T04:14:58;93628.88;;;23.47;35.72
22389;BME280;11362;48.102;11.620;2023-03-14T04:17:24;93634.41;;;23.47;35.78
22389;BME280;11362;48.102;11.620;2023-03-14T04:19:49;93639.16;;;23.46;36.01
22389;BME280;11362;48.102;11.620;2023-03-14T04:22:14;93630.09;;;23.46;35.72
22389;BME280;11362;48.102;11.620;2023-03-14T04:24:40;93621.78;;;23.46;35.82
22389;BME280;11362;48.102;11.620;2023-03-14T04:27:05;93611.44;;;23.46;35.66
22389;BME280;11362;48.102;11.620;2023-03-14T04:29:30;93598.81;;;23.45;35.80
22389;BME280;11362;48.102;11.620;2023-03-14T04:31:55;93601.59;;;23.45;35.69
22389;BME280;11362;48.102;11.620;2023-03-14T04:34:21;93594.81;;;23.46;35.55
22389;BME280;11362;48.102;11.620;2023-03-14T04:36:46;93594.06;;;23.46;35.58
22389;BME280;11362;48.102;11.620;2023-03-14T04:39:11;93582.19;;;23.45;35.75
22389;BME280;11362;48.102;11.620;2023-03-14T04:41:37;93585.75;;;23.46;35.67
22389;BME280;11362;48.102;11.620;2023-03-14T04:44:02;93579.44;;;23.45;35.73
22389;BME280;11362;48.102;11.620;2023-03-14T04:46:27;93578.69;;;23.45;35.69
22389;BME280;11362;48.102;11.620;2023-03-14T04:48:52;93586.50;;;23.46;35.66
22389;BME280;11362;48.102;11.620;2023-03-14T04:51:18;93585.28;;;23.47;35.64
22389;BME280;11362;48.102;11.620;2023-03-14T04:53:43;93580.97;;;23.46;35.53
22389;BME280;11362;48.102;11.620;2023-03-14T04:56:09;93580.22;;;23.46;35.73
22389;BME280;11362;48.102;11.620;2023-03-14T04:58:34;93572.66;;;23.46;35.58
22389;BME280;11362;48.102;11.620;2023-03-14T05:01:04;93568.34;;;23.45;35.62
22389;BME280;11362;48.102;11.620;2023-03-14T05:03:29;93567.13;;;23.46;35.71
22389;BME280;11362;48.102;11.620;2023-03-14T05:05:54;93562.34;;;23.47;35.71
22389;BME280;11362;48.102;11.620;2023-03-14T05:08:20;93567.13;;;23.46;35.70
22389;BME280;11362;48.102;11.620;2023-03-14T05:10:51;93563.59;;;23.46;35.55
22389;BME280;11362;48.102;11.620;2023-03-14T05:13:17;93572.66;;;23.46;35.58
22389;BME280;11362;48.102;11.620;2023-03-14T05:15:42;93562.34;;;23.47;35.57
22389;BME280;11362;48.102;11.620;2023-03-14T05:18:07;93550.50;;;23.46;35.48
22389;BME280;11362;48.102;11.620;2023-03-14T05:20:33;93561.56;;;23.46;35.59
22389;BME280;11362;48.102;11.620;2023-03-14T05:22:58;93552.03;;;23.47;35.51
22389;BME280;11362;48.102;11.620;2023-03-14T05:25:23;93556.81;;;23.47;35.59
22389;BME280;11362;48.102;11.620;2023-03-14T05:27:48;93550.50;;;23.46;35.57
22389;BME280;11362;48.102;11.620;2023-03-14T05:30:14;93565.56;;;23.45;35.53
22389;BME280;11362;48.102;11.620;2023-03-14T05:32:39;93560.81;;;23.46;35.45
22389;BME280;11362;48.102;11.620;2023-03-14T05:35:05;93556.50;;;23.45;35.59
22389;BME280;11362;48.102;11.620;2023-03-14T05:37:30;93559.28;;;23.45;35.49
22389;BME280;11362;48.102;11.620;2023-03-14T05:39:55;93562.34;;;23.47;35.63
22389;BME280;11362;48.102;11.620;2023-03-14T05:42:20;93560.34;;;23.47;35.30
22389;BME280;11362;48.102;11.620;2023-03-14T05:44:46;93552.03;;;23.47;35.53
22389;BME280;11362;48.102;11.620;2023-03-14T05:47:11;93548.94;;;23.45;35.52
22389;BME280;11362;48.102;11.620;2023-03-14T05:49:36;93552.03;;;23.47;35.52
22389;BME280;11362;48.102;11.620;2023-03-14T05:52:02;93553.25;;;23.46;35.39
22389;BME280;11362;48.102;11.620;2023-03-14T05:54:27;93553.25;;;23.46;35.50
22389;BME280;11362;48.102;11.620;2023-03-14T05:56:52;93544.94;;;23.46;35.41
22389;BME280;11362;48.102;11.620;2023-03-14T05:59:18;93547.72;;;23.46;35.48
22389;BME280;11362;48.102;11.620;2023-03-14T06:01:43;93545.72;;;23.47;35.42
22389;BME280;11362;48.102;11.620;2023-03-14T06:04:08;93542.19;;;23.46;35.41
22389;BME280;11362;48.102;11.620;2023-03-14T06:06:34;93544.94;;;23.46;35.34
22389;BME280;11362;48.102;11.620;2023-03-14T06:08:59;93542.19;;;23.46;35.47
22389;BME280;11362;48.102;11.620;2023-03-14T06:11:24;93544.19;;;23.46;35.54
22389;BME280;11362;48.102;11.620;2023-03-14T06:13:50;93543.41;;;23.45;35.14
22389;BME280;11362;48.102;11.620;2023-03-14T06:16:16;93548.06;;;23.48;35.54
22389;BME280;11362;48.102;11.620;2023-03-14T06:18:41;93522.63;;;23.50;35.50
22389;BME280;11362;48.102;11.620;2023-03-14T06:21:06;93522.63;;;23.50;35.75
22389;BME280;11362;48.102;11.620;2023-03-14T06:23:32;93532.03;;;23.52;35.99
22389;BME280;11362;48.102;11.620;2023-03-14T06:25:57;93522.34;;;23.57;36.49
22389;BME280;11362;48.102;11.620;2023-03-14T06:28:23;93528.69;;;23.57;36.87
22389;BME280;11362;48.102;11.620;2023-03-14T06:30:48;93520.34;;;23.57;37.50
22389;BME280;11362;48.102;11.620;2023-03-14T06:33:13;93515.44;;;23.61;37.61
22389;BME280;11362;48.102;11.620;2023-03-14T06:35:39;93504.66;;;23.63;37.89
22389;BME280;11362;48.102;11.620;2023-03-14T06:38:04;93510.97;;;23.73;38.06
22389;BME280;11362;48.102;11.620;2023-03-14T06:40:29;93503.59;;;23.70;38.22
22389;BME280;11362;48.102;11.620;2023-03-14T06:42:55;93522.53;;;23.71;38.30
22389;BME280;11362;48.102;11.620;2023-03-14T06:45:20;93528.69;;;23.75;38.29
22389;BME280;11362;48.102;11.620;2023-03-14T06:47:45;93525.94;;;23.75;38.88
22389;BME280;11362;48.102;11.620;2023-03-14T06:50:11;93536.25;;;23.75;38.69
22389;BME280;11362;48.102;11.620;2023-03-14T06:52:36;93543.78;;;23.74;38.33
22389;BME280;11362;48.102;11.620;2023-03-14T06:55:02;93547.50;;;23.71;38.27
22389;BME280;11362;48.102;11.620;2023-03-14T06:57:27;93506.38;;;23.70;38.14
22389;BME280;11362;48.102;11.620;2023-03-14T06:59:53;93501.13;;;23.72;38.29
22389;BME280;11362;48.102;11.620;2023-03-14T07:02:18;93529.63;;;23.72;38.42
22389;BME280;11362;48.102;11.620;2023-03-14T07:04:43;93519.44;;;23.69;38.62
22389;BME280;11362;48.102;11.620;2023-03-14T07:07:09;93512.34;;;23.68;38.56
22389;BME280;11362;48.102;11.620;2023-03-14T07:09:34;93510.81;;;23.67;38.63
22389;BME280;11362;48.102;11.620;2023-03-14T07:12:00;93481.88;;;23.68;38.68
22389;BME280;11362;48.102;11.620;2023-03-14T07:14:25;93481.88;;;23.68;38.64
22389;BME280;11362;48.102;11.620;2023-03-14T07:16:51;93517.91;;;23.68;38.48
22389;BME280;11362;48.102;11.620;2023-03-14T07:19:16;93508.19;;;23.64;38.21
22389;BME280;11362;48.102;11.620;2023-03-14T07:21:41;93516.50;;;23.64;38.60
22389;BME280;11362;48.102;11.620;2023-03-14T07:24:07;93539.31;;;23.68;38.65
22389;BME280;11362;48.102;11.620;2023-03-14T07:26:33;93537.31;;;23.68;38.79
22389;BME280;11362;48.102;11.620;2023-03-14T07:28:58;93539.31;;;23.68;38.73
22389;BME280;11362;48.102;11.620;2023-03-14T07:31:24;93553.63;;;23.66;38.57
22389;BME280;11362;48.102;11.620;2023-03-14T07:33:49;93542.25;;;23.64;38.60
22389;BME280;11362;48.102;11.620;2023-03-14T07:36:15;93526.38;;;23.65;38.53
22389;BME280;11362;48.102;11.620;2023-03-14T07:38:40;93522.84;;;23.64;38.40
22389;BME280;11362;48.102;11.620;2023-03-14T07:41:06;93525.13;;;23.66;38.41
22389;BME280;11362;48.102;11.620;2023-03-14T07:43:32;93529.00;;;23.68;38.65
22389;BME280;11362;48.102;11.620;2023-03-14T07:45:58;93495.72;;;23.68;38.71
22389;BME280;11362;48.102;11.620;2023-03-14T07:48:23;93502.06;;;23.69;38.72
22389;BME280;11362;48.102;11.620;2023-03-14T07:50:49;93496.66;;;23.65;38.46
22389;BME280;11362;48.102;11.620;2023-03-14T07:53:14;93490.34;;;23.65;38.33
22389;BME280;11362;48.102;11.620;2023-03-14T07:55:39;93513.28;;;23.65;37.91
22389;BME280;11362;48.102;11.620;2023-03-14T07:58:05;93514.81;;;23.66;38.36
22389;BME280;11362;48.102;11.620;2023-03-14T08:00:30;93516.38;;;23.67;38.23
22389;BME280;11362;48.102;11.620;2023-03-14T08:02:55;93492.97;;;23.68;38.33
22389;BME280;11362;48.102;11.620;2023-03-14T08:05:21;93490.97;;;23.69;38.21
22389;BME280;11362;48.102;11.620;2023-03-14T08:07:46;93489.44;;;23.68;38.15
22389;BME280;11362;48.102;11.620;2023-03-14T08:10:11;93498.19;;;23.66;38.24
22389;BME280;11362;48.102;11.620;2023-03-14T08:12:36;93508.50;;;23.66;38.28
22389;BME280;11362;48.102;11.620;2023-03-14T08:15:02;93494.66;;;23.66;37.77
22389;BME280;11362;48.102;11.620;2023-03-14T08:17:27;93494.78;;;23.62;37.71
22389;BME280;11362;48.102;11.620;2023-03-14T08:19:52;93518.19;;;23.61;37.50
22389;BME280;11362;48.102;11.620;2023-03-14T08:22:18;93516.66;;;23.60;37.58
22389;BME280;11362;48.102;11.620;2023-03-14T08:24:43;93525.28;;;23.62;37.45
22389;BME280;11362;48.102;11.620;2023-03-14T08:27:08;93523.75;;;23.61;37.48
22389;BME280;11362;48.102;11.620;2023-03-14T08:29:34;93522.50;;;23.62;37.70
22389;BME280;11362;48.102;11.620;2023-03-14T08:31:59;93505.88;;;23.62;36.94
22389;BME280;11362;48.102;11.620;2023-03-14T08:34:24;93503.88;;;23.63;37.49
22389;BME280;11362;48.102;11.620;2023-03-14T08:36:49;93498.34;;;23.63;37.40
22389;BME280;11362;48.102;11.620;2023-03-14T08:39:15;93537.94;;;23.63;37.52
22389;BME280;11362;48.102;11.620;2023-03-14T08:41:40;93540.69;;;23.63;37.61
22389;BME280;11362;48.102;11.620;2023-03-14T08:44:09;93552.09;;;23.65;37.67
22389;BME280;11362;48.102;11.620;2023-03-14T08:46:35;93555.97;;;23.68;37.54
22389;BME280;11362;48.102;11.620;2023-03-14T08:49:00;93552.41;;;23.67;38.13
22389;BME280;11362;48.102;11.620;2023-03-14T08:51:26;93557.50;;;23.69;37.89
22389;BME280;11362;48.102;11.620;2023-03-14T08:53:51;93555.03;;;23.71;38.35
22389;BME280;11362;48.102;11.620;2023-03-14T08:56:16;93531.31;;;23.70;38.29
22389;BME280;11362;48.102;11.620;2023-03-14T08:58:42;93535.91;;;23.73;38.35
22389;BME280;11362;48.102;11.620;2023-03-14T09:01:08;93543.50;;;23.72;38.54
22389;BME280;11362;48.102;11.620;2023-03-14T09:03:34;93533.94;;;23.73;38.64
22389;BME280;11362;48.102;11.620;2023-03-14T09:06:07;93565.06;;;23.77;38.84
22389;BME280;11362;48.102;11.620;2023-03-14T09:08:34;93571.38;;;23.78;38.79
22389;BME280;11362;48.102;11.620;2023-03-14T09:10:59;93573.06;;;23.75;38.63
22389;BME280;11362;48.102;11.620;2023-03-14T09:13:25;93565.06;;;23.77;39.05
22389;BME280;11362;48.102;11.620;2023-03-14T09:15:51;93570.13;;;23.79;39.00
22389;BME280;11362;48.102;11.620;2023-03-14T09:18:17;93572.44;;;23.80;38.88
22389;BME280;11362;48.102;11.620;2023-03-14T09:20:42;93570.63;;;23.77;39.18
22389;BME280;11362;48.102;11.620;2023-03-14T09:23:07;93572.44;;;23.80;39.10
22389;BME280;11362;48.102;11.620;2023-03-14T09:25:32;93569.69;;;23.80;39.08
22389;BME280;11362;48.102;11.620;2023-03-14T09:27:58;93569.69;;;23.80;39.01
22389;BME280;11362;48.102;11.620;2023-03-14T09:30:23;93573.38;;;23.77;38.85
22389;BME280;11362;48.102;11.620;2023-03-14T09:32:48;93566.75;;;23.75;39.04
22389;BME280;11362;48.102;11.620;2023-03-14T09:35:13;93571.81;;;23.76;38.96
22389;BME280;11362;48.102;11.620;2023-03-14T09:37:39;93566.75;;;23.75;38.89
22389;BME280;11362;48.102;11.620;2023-03-14T09:40:05;93554.88;;;23.74;38.92
22389;BME280;11362;48.102;11.620;2023-03-14T09:42:30;93590.47;;;23.76;39.20
22389;BME280;11362;48.102;11.620;2023-03-14T09:44:59;93533.50;;;23.75;39.09
22389;BME280;11362;48.102;11.620;2023-03-14T09:47:27;93523.63;;;23.74;39.00
22389;BME280;11362;48.102;11.620;2023-03-14T09:49:52;93524.09;;;23.72;39.04
22389;BME280;11362;48.102;11.620;2023-03-14T09:52:24;93520.53;;;23.72;38.86
22389;BME280;11362;48.102;11.620;2023-03-14T09:54:55;93522.53;;;23.71;38.79
22389;BME280;11362;48.102;11.620;2023-03-14T09:57:24;93516.66;;;23.69;38.62
22389;BME280;11362;48.102;11.620;2023-03-14T09:59:52;93516.66;;;23.69;38.44
22389;BME280;11362;48.102;11.620;2023-03-14T10:02:24;93512.34;;;23.68;38.21
22389;BME280;11362;48.102;11.620;2023-03-14T10:04:52;93512.34;;;23.68;38.30
22389;BME280;11362;48.102;11.620;2023-03-14T10:07:29;93508.34;;;23.69;38.11
22389;BME280;11362;48.102;11.620;2023-03-14T10:09:54;93508.84;;;23.68;38.10
22389;BME280;11362;48.102;11.620;2023-03-14T10:12:30;93506.81;;;23.68;38.16
22389;BME280;11362;48.102;11.620;2023-03-14T10:14:56;93503.28;;;23.68;38.46
22389;BME280;11362;48.102;11.620;2023-03-14T10:17:21;93506.81;;;23.68;38.07
22389;BME280;11362;48.102;11.620;2023-03-14T10:19:57;93503.59;;;23.70;37.89
22389;BME280;11362;48.102;11.620;2023-03-14T10:22:25;93506.81;;;23.68;37.98
22389;BME280;11362;48.102;11.620;2023-03-14T10:24:54;93505.59;;;23.69;37.87
22389;BME280;11362;48.102;11.620;2023-03-14T10:27:22;93498.84;;;23.70;37.84
22389;BME280;11362;48.102;11.620;2023-03-14T10:30:03;93500.38;;;23.71;37.67
22389;BME280;11362;48.102;11.620;2023-03-14T10:32:35;93489.59;;;23.73;37.38
22389;BME280;11362;48.102;11.620;2023-03-14T10:37:56;93518.84;;;23.74;37.63
22389;BME280;11362;48.102;11.620;2023-03-14T10:40:27;93520.38;;;23.75;37.67
22389;BME280;11362;48.102;11.620;2023-03-14T10:42:53;93521.16;;;23.76;37.70
22389;BME280;11362;48.102;11.620;2023-03-14T10:45:31;93510.38;;;23.78;37.58
22389;BME280;11362;48.102;11.620;2023-03-14T10:47:59;93511.16;;;23.78;37.54
22389;BME280;11362;48.102;11.620;2023-03-14T10:50:31;93513.94;;;23.78;37.43
22389;BME280;11362;48.102;11.620;2023-03-14T10:53:01;93519.16;;;23.76;37.43
22389;BME280;11362;48.102;11.620;2023-03-14T10:55:27;93521.63;;;23.74;37.46
22389;BME280;11362;48.102;11.620;2023-03-14T10:57:52;93521.31;;;23.72;37.38
22389;BME280;11362;48.102;11.620;2023-03-14T11:00:20;93518.22;;;23.70;37.50
22389;BME280;11362;48.102;11.620;2023-03-14T11:05:40;93527.75;;;23.69;37.43
22389;BME280;11362;48.102;11.620;2023-03-14T11:16:26;93529.00;;;23.68;37.23
22389;BME280;11362;48.102;11.620;2023-03-14T11:19:15;93530.69;;;23.66;37.27
22389;BME280;11362;48.102;11.620;2023-03-14T11:24:55;93529.00;;;23.68;37.25
22389;BME280;11362;48.102;11.620;2023-03-14T11:27:34;93517.16;;;23.68;37.29
22389;BME280;11362;48.102;11.620;2023-03-14T11:30:22;93523.44;;;23.68;37.26
22389;BME280;11362;48.102;11.620;2023-03-14T11:33:01;93513.59;;;23.67;37.29
22389;BME280;11362;48.102;11.620;2023-03-14T11:35:32;93513.16;;;23.69;37.10
22389;BME280;11362;48.102;11.620;2023-03-14T11:38:09;93511.47;;;23.71;37.08
22389;BME280;11362;48.102;11.620;2023-03-14T11:40:37;93504.69;;;23.72;37.00
22389;BME280;11362;48.102;11.620;2023-03-14T11:43:11;93514.53;;;23.73;37.09
22389;BME280;11362;48.102;11.620;2023-03-14T11:45:41;93481.56;;;23.75;36.99
22389;BME280;11362;48.102;11.620;2023-03-14T11:48:15;93488.81;;;23.73;36.83
22389;BME280;11362;48.102;11.620;2023-03-14T11:50:43;93482.94;;;23.71;36.97
22389;BME280;11362;48.102;11.620;2023-03-14T11:53:18;93488.66;;;23.67;37.34
22389;BME280;11362;48.102;11.620;2023-03-14T11:55:44;93475.25;;;23.66;36.90
22389;BME280;11362;48.102;11.620;2023-03-14T11:58:27;93497.91;;;23.64;37.08
22389;BME280;11362;48.102;11.620;2023-03-14T12:00:56;93491.13;;;23.65;37.40
22389;BME280;11362;48.102;11.620;2023-03-14T12:03:29;93487.41;;;23.68;36.91
22389;BME280;11362;48.102;11.620;2023-03-14T12:06:22;93490.97;;;23.69;36.93
22389;BME280;11362;48.102;11.620;2023-03-14T12:08:52;93487.41;;;23.68;36.93
22389;BME280;11362;48.102;11.620;2023-03-14T12:11:27;93482.66;;;23.69;36.82
22389;BME280;11362;48.102;11.620;2023-03-14T12:13:53;93486.19;;;23.69;36.89
22389;BME280;11362;48.102;11.620;2023-03-14T12:18:47;93477.09;;;23.69;36.93
22389;BME280;11362;48.102;11.620;2023-03-14T12:21:13;93488.94;;;23.69;36.82
22389;BME280;11362;48.102;11.620;2023-03-14T12:23:54;93492.97;;;23.68;36.77
22389;BME280;11362;48.102;11.620;2023-03-14T12:26:24;93495.72;;;23.68;36.82
22389;BME280;11362;48.102;11.620;2023-03-14T12:28:52;93492.66;;;23.66;36.75
22389;BME280;11362;48.102;11.620;2023-03-14T12:31:43;93496.97;;;23.67;36.64
22389;BME280;11362;48.102;11.620;2023-03-14T12:39:20;93472.16;;;23.64;36.50
22389;BME280;11362;48.102;11.620;2023-03-14T12:42:09;93470.19;;;23.64;36.60
22389;BME280;11362;48.102;11.620;2023-03-14T12:44:48;93475.72;;;23.64;36.60
22389;BME280;11362;48.102;11.620;2023-03-14T12:49:50;93495.28;;;23.70;36.70
22389;BME280;11362;48.102;11.620;2023-03-14T12:52:20;93490.97;;;23.69;36.24
22389;BME280;11362;48.102;11.620;2023-03-14T12:55:04;93494.50;;;23.69;36.36
22389;BME280;11362;48.102;11.620;2023-03-14T12:57:45;93478.94;;;23.72;36.31
22389;BME280;11362;48.102;11.620;2023-03-14T13:00:18;93477.25;;;23.74;36.47
22389;BME280;11362;48.102;11.620;2023-03-14T13:02:45;93491.13;;;23.74;36.35
22389;BME280;11362;48.102;11.620;2023-03-14T13:05:15;93490.03;;;23.72;36.20
22389;BME280;11362;48.102;11.620;2023-03-14T13:10:21;93500.19;;;23.66;36.24
22389;BME280;11362;48.102;11.620;2023-03-14T13:12:54;93472.16;;;23.64;36.26
22389;BME280;11362;48.102;11.620;2023-03-14T13:15:44;93472.94;;;23.64;36.13
22389;BME280;11362;48.102;11.620;2023-03-14T13:18:15;93502.81;;;23.69;36.11
22389;BME280;11362;48.102;11.620;2023-03-14T13:20:48;93514.97;;;23.72;35.98
22389;BME280;11362;48.102;11.620;2023-03-14T13:23:35;93501.13;;;23.72;36.01
22389;BME280;11362;48.102;11.620;2023-03-14T13:26:01;93502.34;;;23.71;36.12
22389;BME280;11362;48.102;11.620;2023-03-14T13:28:28;93505.91;;;23.71;35.96